LFKJLFKS

Guest
Details From LFKJ - Napoleon Bonaparte
To LFKS - Solenzara
Flight Number -
Tags decoded
Created
Modified
Stats Distance 27 nm / 50 km
Max Altitude 0 ft / 0 m
Waypoints 2
Social Downloads 1
Likes 0
Share

Download

Looking for another format? Having issues loading an existing format? Contact us
Advertisement - Login to hide

Notes

Requested: LFKJ LFKS

Route

LFKJ LFKS

ID Type Via Altitude (ft/m) Position (lat/lon) Dist (leg/tot) Name
O LFKJ APT - 0 / 0 41.92289 / 8.79959 - / 0 nm Napoleon Bonaparte
O LFKS APT - 0 / 0 41.92462 / 9.40532 27 / 27 nm Solenzara

Altitude Profile

Advertisement - Login to hide

LFKJ

Details ICAO LFKJ (AJA)
Name Napoleon Bonaparte
Region France
Timezone Europe/Paris (UTC+1.0)
Stats Elevation 19 ft / 6 m (AMSL)
Location 41.921700° 8.801090°
Runways 1
Magnetic Variation 2.638° E

METAR

LFKJ 290800Z AUTO 05004KT 9999 FEW032 BKN050 BKN230 14/12 Q1022 NOSIG

Decode

TAF

TAF LFKJ 290200Z 2903/3003 05007KT 9999 BKN028 TEMPO 2912/2915 25010KT PROB30 TEMPO 3000/3003 BKN014

Decode

Departure Runways

ID Width Length Bearing (true/mag) Surface Threshold Overrun Markings Lighting
02 148 ft / 45 m 7,904 ft / 2,409 m 24.84° / 22.20° CONCRETE 0 ft / 0 m 161 ft / 49 m PREC-APP CENTERLINE EDGE THRESHOLD REIL-OMNI
20 148 ft / 45 m 7,904 ft / 2,409 m 204.85° / 202.21° CONCRETE 741 ft / 226 m 230 ft / 70 m PREC-APP CENTERLINE EDGE THRESHOLD REIL-OMNI

LFKS

Details ICAO LFKS (SOZ)
Name Solenzara
Region France
Timezone Europe/Paris (UTC+1.0)
Stats Elevation 29 ft / 9 m (AMSL)
Location 41.924400° 9.405360°
Runways 1
Magnetic Variation 2.759° E

METAR

LFKS 290800Z AUTO 36004KT 340V050 CAVOK 15/11 Q1018

Decode

TAF

TAF LFKS 290200Z 2903/3003 01005KT CAVOK

Decode

Destination Runways

ID Width Length Bearing (true/mag) Surface Threshold Overrun Markings Lighting
18 148 ft / 45 m 8,625 ft / 2,629 m 178.99° / 176.23° ASPHALT 0 ft / 0 m 840 ft / 256 m APP EDGE THRESHOLD CALVERT-ILS REIL-OMNI
36 148 ft / 45 m 8,625 ft / 2,629 m 358.99° / 356.23° ASPHALT 0 ft / 0 m 932 ft / 284 m APP EDGE THRESHOLD TDZ REIL-OMNI

Approach Navaids

Runway Type Ident Frequency Range Bearing (true/mag) Slope Elevation
18 GS SZA 109.10 MHz 10 nm / 19 km 179.90° / 177.14 ° 2.50° 27 ft / 8 m (AMSL)
18 LOC-ILS SZA 109.10 MHz 18 nm / 33 km 178.95° / 176.19 ° - 27 ft / 8 m (AMSL)

Popular Alternatives